createdAt,value
2022-10-18T00:00:07.529Z,12.83
2022-10-18T00:02:34.608Z,12.82
2022-10-18T00:05:01.654Z,12.82
2022-10-18T00:07:28.521Z,12.83
2022-10-18T00:09:55.525Z,12.82
2022-10-18T00:12:22.512Z,12.82
2022-10-18T00:14:51.086Z,12.78
2022-10-18T00:17:18.417Z,12.80
2022-10-18T00:19:46.662Z,12.83
2022-10-18T00:22:13.612Z,12.84
2022-10-18T00:24:40.423Z,12.83
2022-10-18T00:27:07.618Z,12.82
2022-10-18T00:29:34.459Z,12.83
2022-10-18T00:32:01.250Z,12.82
2022-10-18T00:34:28.137Z,12.84
2022-10-18T00:36:55.321Z,12.83
2022-10-18T00:39:23.043Z,12.84
2022-10-18T00:41:50.424Z,12.85
2022-10-18T00:44:17.172Z,12.85
2022-10-18T00:46:49.486Z,12.83
2022-10-18T00:49:20.876Z,12.83
2022-10-18T00:52:05.017Z,12.81
2022-10-18T00:54:34.146Z,12.80
2022-10-18T00:57:01.852Z,12.80
2022-10-18T00:59:29.624Z,12.79
2022-10-18T01:01:56.815Z,12.78
2022-10-18T01:04:24.217Z,12.78
2022-10-18T01:09:50.148Z,12.77
2022-10-18T01:12:58.750Z,12.75
2022-10-18T01:15:37.436Z,12.73
2022-10-18T01:18:22.579Z,12.72
2022-10-18T01:21:10.952Z,12.71
2022-10-18T01:24:12.906Z,12.70
2022-10-18T01:27:04.360Z,12.77
2022-10-18T01:30:07.904Z,12.82
2022-10-18T01:32:44.429Z,12.78
2022-10-18T01:35:26.246Z,12.78
2022-10-18T01:37:59.369Z,12.78
2022-10-18T01:40:27.050Z,12.79
2022-10-18T01:42:54.151Z,12.80
2022-10-18T01:45:22.722Z,12.83
2022-10-18T01:47:51.045Z,12.83
2022-10-18T01:50:30.755Z,12.83
2022-10-18T01:52:57.900Z,12.85
2022-10-18T01:55:48.784Z,12.83
2022-10-18T01:58:54.041Z,12.82
2022-10-18T02:01:42.489Z,12.82
2022-10-18T02:04:37.697Z,12.79
2022-10-18T02:07:15.179Z,12.76
2022-10-18T02:10:06.811Z,12.72
2022-10-18T02:12:35.042Z,12.70
2022-10-18T02:15:04.387Z,12.67
2022-10-18T02:17:32.514Z,12.65
2022-10-18T02:20:02.684Z,12.63
2022-10-18T02:22:33.850Z,12.62
2022-10-18T02:25:05.578Z,12.60
2022-10-18T02:27:32.668Z,12.58
2022-10-18T02:29:59.654Z,12.58
2022-10-18T02:32:35.079Z,12.55
2022-10-18T02:35:34.286Z,12.55
2022-10-18T02:38:02.993Z,12.52
2022-10-18T02:40:30.316Z,12.50
2022-10-18T02:42:58.782Z,12.46
2022-10-18T02:45:26.728Z,12.42
2022-10-18T02:47:53.807Z,12.39
2022-10-18T02:50:20.585Z,12.35
2022-10-18T02:52:47.396Z,12.34
2022-10-18T02:55:14.171Z,12.28
2022-10-18T02:57:40.957Z,12.27
2022-10-18T03:00:08.536Z,12.21
2022-10-18T03:02:35.501Z,12.17
2022-10-18T03:05:02.400Z,12.13
2022-10-18T03:07:29.476Z,12.10
2022-10-18T03:09:56.470Z,12.05
2022-10-18T03:12:23.260Z,12.04
2022-10-18T03:14:50.036Z,11.98
2022-10-18T03:17:16.836Z,11.97
2022-10-18T03:19:43.621Z,11.96
2022-10-18T03:22:10.484Z,11.93
2022-10-18T03:24:37.266Z,11.90
2022-10-18T03:27:04.205Z,11.87
2022-10-18T03:29:31.002Z,11.83
2022-10-18T03:31:57.860Z,11.84
2022-10-18T03:34:24.709Z,11.84
2022-10-18T03:36:51.469Z,11.80
2022-10-18T03:39:18.291Z,11.77
2022-10-18T03:41:45.013Z,11.75
2022-10-18T03:44:11.836Z,11.72
2022-10-18T03:46:38.615Z,11.69
2022-10-18T03:49:05.422Z,11.65
2022-10-18T03:51:32.215Z,11.63
2022-10-18T03:53:59.020Z,11.60
2022-10-18T03:56:25.850Z,11.57
2022-10-18T03:58:52.652Z,11.56
2022-10-18T04:01:19.594Z,11.54
2022-10-18T04:03:46.499Z,11.50
2022-10-18T04:06:13.421Z,11.47
2022-10-18T04:08:40.275Z,11.42
2022-10-18T04:11:11.312Z,11.37
2022-10-18T04:13:38.783Z,11.34
2022-10-18T04:16:05.676Z,11.29
2022-10-18T04:18:32.467Z,11.25
2022-10-18T04:20:59.315Z,11.19
2022-10-18T04:23:26.160Z,11.16
2022-10-18T04:25:52.951Z,11.15
2022-10-18T04:28:19.865Z,11.11
2022-10-18T04:30:53.383Z,11.05
2022-10-18T04:33:20.683Z,11.02
2022-10-18T04:35:48.013Z,10.97
2022-10-18T04:38:14.990Z,10.93
2022-10-18T04:40:41.765Z,10.87
2022-10-18T04:43:08.605Z,10.83
2022-10-18T04:45:35.726Z,10.79
2022-10-18T04:48:03.388Z,10.75
2022-10-18T04:50:30.261Z,10.75
2022-10-18T04:52:57.032Z,10.72
2022-10-18T04:55:24.001Z,10.71
2022-10-18T04:57:50.759Z,10.69
2022-10-18T05:00:17.730Z,10.68
2022-10-18T05:02:44.530Z,10.69
2022-10-18T05:05:13.928Z,10.67
2022-10-18T05:07:41.272Z,10.65
2022-10-18T05:10:08.613Z,10.62
2022-10-18T05:12:35.523Z,10.59
2022-10-18T05:15:02.414Z,10.56
2022-10-18T05:17:29.248Z,10.55
2022-10-18T05:19:56.091Z,10.51
2022-10-18T05:22:22.894Z,10.46
2022-10-18T05:24:49.784Z,10.44
2022-10-18T05:27:16.573Z,10.41
2022-10-18T05:29:43.374Z,10.37
2022-10-18T05:32:10.210Z,10.36
2022-10-18T05:34:37.018Z,10.34
2022-10-18T05:37:03.860Z,10.33
2022-10-18T05:39:30.768Z,10.31
2022-10-18T05:41:58.310Z,10.31
2022-10-18T05:44:25.070Z,10.29
2022-10-18T05:46:51.938Z,10.30
2022-10-18T05:49:18.924Z,10.32
2022-10-18T05:51:45.618Z,10.31
2022-10-18T05:54:13.063Z,10.33
2022-10-18T05:56:40.599Z,10.30
2022-10-18T05:59:10.392Z,10.31
2022-10-18T06:01:38.569Z,10.29
2022-10-18T06:04:06.048Z,10.29
2022-10-18T06:06:33.781Z,10.27
2022-10-18T06:09:00.644Z,10.29
2022-10-18T06:11:27.458Z,10.31
2022-10-18T06:13:54.314Z,10.32
2022-10-18T06:16:23.049Z,10.33
2022-10-18T06:18:52.503Z,10.33
2022-10-18T06:21:19.872Z,10.33
2022-10-18T06:23:55.085Z,10.34
2022-10-18T06:26:22.399Z,10.34
2022-10-18T06:28:50.213Z,10.34
2022-10-18T06:31:17.415Z,10.33
2022-10-18T06:33:45.999Z,10.34
2022-10-18T06:36:18.716Z,10.38
2022-10-18T06:38:45.797Z,10.38
2022-10-18T06:41:12.956Z,10.38
2022-10-18T06:43:40.367Z,10.40
2022-10-18T06:46:08.786Z,10.39
2022-10-18T06:48:36.755Z,10.41
2022-10-18T06:51:06.768Z,10.43
2022-10-18T06:53:43.692Z,10.46
2022-10-18T06:56:16.316Z,10.49
2022-10-18T06:58:43.325Z,10.49
2022-10-18T07:01:12.866Z,10.53
2022-10-18T07:03:39.947Z,10.58
2022-10-18T07:06:09.041Z,10.62
2022-10-18T07:08:36.083Z,10.64
2022-10-18T07:11:02.885Z,10.65
2022-10-18T07:13:32.765Z,10.68
2022-10-18T07:16:12.825Z,10.70
2022-10-18T07:18:44.773Z,10.75
2022-10-18T07:21:15.585Z,10.79
2022-10-18T07:23:44.296Z,10.81
2022-10-18T07:26:33.301Z,10.86
2022-10-18T07:29:11.933Z,10.89
2022-10-18T07:31:39.381Z,10.95
2022-10-18T07:34:07.624Z,11.00
2022-10-18T07:36:34.925Z,11.07
2022-10-18T07:39:01.819Z,11.10
2022-10-18T07:41:29.309Z,11.13
2022-10-18T07:43:56.109Z,11.20
2022-10-18T07:46:23.275Z,11.25
2022-10-18T07:48:51.441Z,11.30
2022-10-18T07:51:22.272Z,11.33
2022-10-18T07:53:49.171Z,11.37
2022-10-18T07:56:21.026Z,11.41
2022-10-18T07:58:53.721Z,11.48
2022-10-18T08:01:25.306Z,11.54
2022-10-18T08:03:53.092Z,11.55
2022-10-18T08:06:21.774Z,11.60
2022-10-18T08:08:48.848Z,11.64
2022-10-18T08:11:19.010Z,11.67
2022-10-18T08:13:46.258Z,11.67
2022-10-18T08:16:16.039Z,11.73
2022-10-18T08:18:43.340Z,11.79
2022-10-18T08:21:12.350Z,11.83
2022-10-18T08:23:39.868Z,11.87
2022-10-18T08:26:09.808Z,11.93
2022-10-18T08:28:37.060Z,11.99
2022-10-18T08:31:09.192Z,12.05
2022-10-18T08:33:36.415Z,12.12
2022-10-18T08:36:06.116Z,12.20
2022-10-18T08:38:35.283Z,12.25
2022-10-18T08:41:43.282Z,12.30
2022-10-18T08:44:23.536Z,12.41
2022-10-18T08:46:59.162Z,12.53
2022-10-18T08:49:32.472Z,12.62
2022-10-18T08:51:59.531Z,12.67
2022-10-18T08:54:56.812Z,12.74
2022-10-18T08:57:23.715Z,12.84
2022-10-18T08:59:50.827Z,12.85
2022-10-18T09:02:49.916Z,12.90
2022-10-18T09:05:16.840Z,12.92
2022-10-18T09:08:09.833Z,12.90
2022-10-18T09:10:45.998Z,12.89
2022-10-18T09:13:18.928Z,12.89
2022-10-18T09:16:17.885Z,12.91
2022-10-18T09:18:57.710Z,12.93
2022-10-18T09:21:41.092Z,12.95
2022-10-18T09:24:13.321Z,12.98
2022-10-18T09:26:46.457Z,13.06
2022-10-18T09:29:22.193Z,13.12
2022-10-18T09:32:14.072Z,13.15
2022-10-18T09:34:54.080Z,13.21
2022-10-18T09:37:24.287Z,13.26
2022-10-18T09:39:55.560Z,13.34
2022-10-18T09:42:35.177Z,13.39
2022-10-18T09:45:21.678Z,13.47
2022-10-18T09:48:11.801Z,13.54
2022-10-18T09:50:44.900Z,13.64
2022-10-18T09:53:26.532Z,13.73
2022-10-18T09:56:15.444Z,13.80
2022-10-18T09:58:45.796Z,13.88
2022-10-18T10:01:23.984Z,13.99
2022-10-18T10:03:51.871Z,14.11
2022-10-18T10:06:31.749Z,14.16
2022-10-18T10:09:01.946Z,14.22
2022-10-18T10:11:50.684Z,14.38
2022-10-18T10:14:26.030Z,14.56
2022-10-18T10:16:58.745Z,14.75
2022-10-18T10:19:30.658Z,14.90
2022-10-18T10:22:05.721Z,15.02
2022-10-18T10:24:53.711Z,15.08
2022-10-18T10:27:44.352Z,15.16
2022-10-18T10:30:27.311Z,15.27
2022-10-18T10:32:56.009Z,15.34
2022-10-18T10:35:53.519Z,15.45
2022-10-18T10:38:26.728Z,15.56
2022-10-18T10:40:54.252Z,15.70
2022-10-18T10:43:39.688Z,15.84
2022-10-18T10:46:10.587Z,15.92
2022-10-18T10:48:46.770Z,16.06
2022-10-18T10:51:16.327Z,16.11
2022-10-18T10:53:50.996Z,16.14
2022-10-18T10:56:29.977Z,16.21
2022-10-18T10:59:02.185Z,16.25
2022-10-18T11:01:32.379Z,16.40
2022-10-18T11:04:02.498Z,16.47
2022-10-18T11:06:49.273Z,16.62
2022-10-18T11:09:32.004Z,16.65
2022-10-18T11:12:11.319Z,16.69
2022-10-18T11:14:51.099Z,16.72
2022-10-18T11:17:40.112Z,16.81
2022-10-18T11:20:38.683Z,16.80
2022-10-18T11:23:13.292Z,16.89
2022-10-18T11:26:03.272Z,16.95
2022-10-18T11:28:57.410Z,17.09
2022-10-18T11:31:31.764Z,17.16
2022-10-18T11:34:17.625Z,17.17
2022-10-18T11:37:29.978Z,17.27
2022-10-18T11:40:15.813Z,17.35
2022-10-18T11:43:30.079Z,17.45
2022-10-18T11:46:28.963Z,17.45
2022-10-18T11:49:18.736Z,17.48
2022-10-18T11:52:11.626Z,17.54
2022-10-18T11:54:56.549Z,17.55
2022-10-18T11:57:59.840Z,17.62
2022-10-18T12:00:57.336Z,17.71
2022-10-18T12:03:27.177Z,17.73
2022-10-18T12:05:58.534Z,17.65
2022-10-18T12:08:37.035Z,17.79
2022-10-18T12:11:16.774Z,17.86
2022-10-18T12:13:57.158Z,17.93
2022-10-18T12:16:50.558Z,17.94
2022-10-18T12:19:26.685Z,17.96
2022-10-18T12:21:58.294Z,18.06
2022-10-18T12:24:30.520Z,17.97
2022-10-18T12:27:00.815Z,17.98
2022-10-18T12:29:30.902Z,18.03
2022-10-18T12:32:02.806Z,18.07
2022-10-18T12:34:43.268Z,18.07
2022-10-18T12:37:25.045Z,18.13
2022-10-18T12:40:10.624Z,18.19
2022-10-18T12:42:46.361Z,18.09
2022-10-18T12:45:13.882Z,18.11
2022-10-18T12:47:41.295Z,18.06
2022-10-18T12:50:28.617Z,18.17
2022-10-18T12:53:08.477Z,18.12
2022-10-18T12:58:30.506Z,18.32
2022-10-18T13:01:02.607Z,18.34
2022-10-18T13:03:42.294Z,18.38
2022-10-18T13:06:09.286Z,18.43
2022-10-18T13:08:42.237Z,18.43
2022-10-18T13:11:12.011Z,18.42
2022-10-18T13:14:08.063Z,18.33
2022-10-18T13:16:59.093Z,18.38
2022-10-18T13:20:02.946Z,18.34
2022-10-18T13:22:49.087Z,18.33
2022-10-18T13:25:27.849Z,18.32
2022-10-18T13:27:54.878Z,18.33
2022-10-18T13:30:21.830Z,18.31
2022-10-18T13:32:54.647Z,18.31
2022-10-18T13:35:40.021Z,18.31
2022-10-18T13:38:24.829Z,18.27
2022-10-18T13:41:13.338Z,18.30
2022-10-18T13:43:57.195Z,18.33
2022-10-18T13:46:33.121Z,18.30
2022-10-18T13:49:20.710Z,18.34
2022-10-18T13:52:05.568Z,18.33
2022-10-18T13:54:50.557Z,18.34
2022-10-18T13:57:39.207Z,18.44
2022-10-18T14:00:30.300Z,18.40
2022-10-18T14:03:44.157Z,18.37
2022-10-18T14:06:22.923Z,18.40
2022-10-18T14:09:25.530Z,18.26
2022-10-18T14:12:26.177Z,18.17
2022-10-18T14:15:14.658Z,18.09
2022-10-18T14:18:16.506Z,18.01
2022-10-18T14:21:01.386Z,17.83
2022-10-18T14:23:40.979Z,17.65
2022-10-18T14:26:19.659Z,17.57
2022-10-18T14:29:01.929Z,17.51
2022-10-18T14:31:30.069Z,17.47
2022-10-18T14:33:59.021Z,17.35
2022-10-18T14:36:29.565Z,17.20
2022-10-18T14:38:59.256Z,17.15
2022-10-18T14:41:28.783Z,17.00
2022-10-18T14:44:14.363Z,16.92
2022-10-18T14:46:47.051Z,16.80
2022-10-18T14:49:15.288Z,16.61
2022-10-18T14:51:44.584Z,16.41
2022-10-18T14:54:30.653Z,16.24
2022-10-18T14:56:59.894Z,16.25
2022-10-18T14:59:33.059Z,16.22
2022-10-18T15:02:05.254Z,16.18
2022-10-18T15:04:35.486Z,16.11
2022-10-18T15:07:05.592Z,16.01
2022-10-18T15:09:35.021Z,15.92
2022-10-18T15:12:07.508Z,15.82
2022-10-18T15:14:35.783Z,15.76
2022-10-18T15:17:14.376Z,15.62
2022-10-18T15:20:00.519Z,15.55
2022-10-18T15:22:32.883Z,15.43
2022-10-18T15:25:06.078Z,15.34
2022-10-18T15:27:37.256Z,15.28
2022-10-18T15:30:14.197Z,15.21
2022-10-18T15:32:49.392Z,15.13
2022-10-18T15:35:24.984Z,15.05
2022-10-18T15:37:53.126Z,15.00
2022-10-18T15:40:33.599Z,14.93
2022-10-18T15:43:04.104Z,14.85
2022-10-18T15:45:35.425Z,14.82
2022-10-18T15:48:17.362Z,14.77
2022-10-18T15:51:04.523Z,14.72
2022-10-18T15:53:33.093Z,14.58
2022-10-18T15:56:01.121Z,14.53
2022-10-18T15:58:40.634Z,14.49
2022-10-18T16:01:18.154Z,14.46
2022-10-18T16:03:46.788Z,14.37
2022-10-18T16:06:18.294Z,14.31
2022-10-18T16:08:51.134Z,14.28
2022-10-18T16:11:24.165Z,14.26
2022-10-18T16:13:55.140Z,14.18
2022-10-18T16:16:27.535Z,14.14
2022-10-18T16:18:55.271Z,14.07
2022-10-18T16:21:27.840Z,13.97
2022-10-18T16:23:54.821Z,13.89
2022-10-18T16:26:23.400Z,13.82
2022-10-18T16:28:52.246Z,13.76
2022-10-18T16:31:22.133Z,13.69
2022-10-18T16:33:51.343Z,13.59
2022-10-18T16:36:21.457Z,13.54
2022-10-18T16:38:49.134Z,13.44
2022-10-18T16:41:16.939Z,13.37
2022-10-18T16:43:45.963Z,13.32
2022-10-18T16:46:34.577Z,13.26
2022-10-18T16:49:02.622Z,13.18
2022-10-18T16:51:29.871Z,13.11
2022-10-18T16:53:57.502Z,13.01
2022-10-18T16:56:30.855Z,12.92
2022-10-18T16:58:58.846Z,12.88
2022-10-18T17:01:26.726Z,12.80
2022-10-18T17:03:53.961Z,12.72
2022-10-18T17:06:27.269Z,12.69
2022-10-18T17:08:55.654Z,12.63
2022-10-18T17:11:25.593Z,12.55
2022-10-18T17:13:52.529Z,12.49
2022-10-18T17:16:32.292Z,12.37
2022-10-18T17:19:01.717Z,12.33
2022-10-18T17:21:29.964Z,12.27
2022-10-18T17:24:00.715Z,12.19
2022-10-18T17:26:29.667Z,12.13
2022-10-18T17:29:03.442Z,12.05
2022-10-18T17:31:32.207Z,11.95
2022-10-18T17:34:02.060Z,11.89
2022-10-18T17:36:31.051Z,11.82
2022-10-18T17:38:58.498Z,11.75
2022-10-18T17:41:25.653Z,11.68
2022-10-18T17:43:52.715Z,11.62
2022-10-18T17:46:19.810Z,11.51
2022-10-18T17:48:47.150Z,11.47
2022-10-18T17:51:16.957Z,11.39
2022-10-18T17:53:44.401Z,11.30
2022-10-18T17:56:12.218Z,11.25
2022-10-18T17:58:39.744Z,11.19
2022-10-18T18:01:15.667Z,11.12
2022-10-18T18:03:42.930Z,11.07
2022-10-18T18:06:21.552Z,11.00
2022-10-18T18:08:49.238Z,10.91
2022-10-18T18:11:17.401Z,10.85
2022-10-18T18:13:44.452Z,10.81
2022-10-18T18:16:19.241Z,10.76
2022-10-18T18:18:54.360Z,10.71
2022-10-18T18:21:21.844Z,10.67
2022-10-18T18:23:49.718Z,10.63
2022-10-18T18:26:18.629Z,10.57
2022-10-18T18:28:45.983Z,10.53
2022-10-18T18:31:19.109Z,10.47
2022-10-18T18:33:46.573Z,10.41
2022-10-18T18:36:14.060Z,10.36
2022-10-18T18:38:44.655Z,10.30
2022-10-18T18:41:16.870Z,10.20
2022-10-18T18:43:47.075Z,10.17
2022-10-18T18:46:14.120Z,10.10
2022-10-18T18:48:41.493Z,10.00
2022-10-18T18:51:14.307Z,9.96
2022-10-18T18:53:43.293Z,9.91
2022-10-18T18:56:15.081Z,9.88
2022-10-18T18:58:44.376Z,9.80
2022-10-18T19:01:15.411Z,9.76
2022-10-18T19:03:43.329Z,9.70
2022-10-18T19:06:14.893Z,9.64
2022-10-18T19:08:44.945Z,9.58
2022-10-18T19:11:22.765Z,9.53
2022-10-18T19:13:50.558Z,9.49
2022-10-18T19:16:35.534Z,9.45
2022-10-18T19:19:26.502Z,9.42
2022-10-18T19:21:58.776Z,9.39
2022-10-18T19:24:28.108Z,9.35
2022-10-18T19:27:13.104Z,9.25
2022-10-18T19:29:41.017Z,9.23
2022-10-18T19:32:12.370Z,9.15
2022-10-18T19:34:39.711Z,9.10
2022-10-18T19:37:06.796Z,9.10
2022-10-18T19:39:35.501Z,9.05
2022-10-18T19:42:05.952Z,9.04
2022-10-18T19:44:36.172Z,9.02
2022-10-18T19:47:06.475Z,8.97
2022-10-18T19:49:33.413Z,8.94
2022-10-18T19:52:00.363Z,8.88
2022-10-18T19:54:27.395Z,8.85
2022-10-18T19:56:54.498Z,8.78
2022-10-18T19:59:22.769Z,8.79
2022-10-18T20:01:51.939Z,8.76
2022-10-18T20:04:19.014Z,8.73
2022-10-18T20:06:46.027Z,8.70
2022-10-18T20:09:17.657Z,8.66
2022-10-18T20:11:47.757Z,8.60
2022-10-18T20:14:14.676Z,8.55
2022-10-18T20:16:41.627Z,8.53
2022-10-18T20:19:08.734Z,8.48
2022-10-18T20:21:36.511Z,8.46
2022-10-18T20:24:06.740Z,8.40
2022-10-18T20:26:34.718Z,8.38
2022-10-18T20:29:01.750Z,8.35
2022-10-18T20:31:39.164Z,8.32
2022-10-18T20:34:11.848Z,8.27
2022-10-18T20:36:39.433Z,8.21
2022-10-18T20:39:07.179Z,8.17
2022-10-18T20:41:39.913Z,8.14
2022-10-18T20:44:11.890Z,8.11
2022-10-18T20:46:40.548Z,8.09
2022-10-18T20:49:08.540Z,8.06
2022-10-18T20:51:35.957Z,8.02
2022-10-18T20:54:06.730Z,7.96
2022-10-18T20:56:35.562Z,7.89
2022-10-18T20:59:03.262Z,7.87
2022-10-18T21:01:32.435Z,7.85
2022-10-18T21:04:02.349Z,7.82
2022-10-18T21:06:31.884Z,7.80
2022-10-18T21:09:05.142Z,7.77
2022-10-18T21:11:37.430Z,7.75
2022-10-18T21:14:05.765Z,7.73
2022-10-18T21:16:35.071Z,7.70
2022-10-18T21:19:07.453Z,7.63
2022-10-18T21:21:34.876Z,7.59
2022-10-18T21:24:05.377Z,7.58
2022-10-18T21:26:35.154Z,7.54
2022-10-18T21:29:02.893Z,7.49
2022-10-18T21:31:32.445Z,7.45
2022-10-18T21:34:00.858Z,7.43
2022-10-18T21:36:31.491Z,7.40
2022-10-18T21:38:58.782Z,7.35
2022-10-18T21:41:26.204Z,7.33
2022-10-18T21:43:54.609Z,7.32
2022-10-18T21:46:24.408Z,7.27
2022-10-18T21:48:53.074Z,7.26
2022-10-18T21:51:21.474Z,7.25
2022-10-18T21:53:50.960Z,7.19
2022-10-18T21:56:23.481Z,7.15
2022-10-18T21:58:50.736Z,7.14
2022-10-18T22:01:24.155Z,7.11
2022-10-18T22:03:53.505Z,7.06
2022-10-18T22:06:21.120Z,7.05
2022-10-18T22:08:57.130Z,7.06
2022-10-18T22:11:27.175Z,7.02
2022-10-18T22:13:54.751Z,6.99
2022-10-18T22:16:22.229Z,6.96
2022-10-18T22:18:50.487Z,6.96
2022-10-18T22:21:19.493Z,6.96
2022-10-18T22:23:48.870Z,6.96
2022-10-18T22:26:20.015Z,6.93
2022-10-18T22:28:47.412Z,6.92
2022-10-18T22:31:26.379Z,6.92
2022-10-18T22:33:55.160Z,6.94
2022-10-18T22:36:22.493Z,6.95
2022-10-18T22:38:49.481Z,7.01
2022-10-18T22:41:16.688Z,7.02
2022-10-18T22:43:45.981Z,6.99
2022-10-18T22:46:14.265Z,6.98
2022-10-18T22:48:41.730Z,6.96
2022-10-18T22:51:08.853Z,6.93
2022-10-18T22:53:37.165Z,6.89
2022-10-18T22:56:05.392Z,6.87
2022-10-18T22:58:32.580Z,6.82
2022-10-18T23:01:04.809Z,6.76
2022-10-18T23:03:31.574Z,6.75
2022-10-18T23:05:58.842Z,6.71
2022-10-18T23:08:26.316Z,6.66
2022-10-18T23:10:58.562Z,6.61
2022-10-18T23:13:26.881Z,6.59
2022-10-18T23:15:53.954Z,6.57
2022-10-18T23:18:20.933Z,6.53
2022-10-18T23:20:47.769Z,6.50
2022-10-18T23:23:14.528Z,6.46
2022-10-18T23:25:41.326Z,6.40
2022-10-18T23:28:08.117Z,6.38
2022-10-18T23:30:38.132Z,6.31
2022-10-18T23:33:05.072Z,6.28
2022-10-18T23:35:31.911Z,6.24
2022-10-18T23:37:58.715Z,6.19
2022-10-18T23:40:25.585Z,6.16
2022-10-18T23:42:52.453Z,6.12
2022-10-18T23:45:19.300Z,6.08
2022-10-18T23:47:46.171Z,6.05
2022-10-18T23:50:12.899Z,5.99
2022-10-18T23:52:39.737Z,5.96
2022-10-18T23:55:07.279Z,5.94
2022-10-18T23:57:34.447Z,5.92
